Time;durP1;ratioP1;P1;durP2;ratioP2;P2;SDS_P1;SDS_P2;PMS_P1;PMS_P2;Temp;Humidity;BMP_temperature;BMP_pressure;BME280_temperature;BME280_humidity;BME280_pressure;Samples;Min_cycle;Max_cycle;Signal;HPM_P1;HPM_P2
2022/10/09 00:01:04;;;;;;;14.85;4.00;;;;;;;;;;5040432;28;20037;-73
2022/10/09 00:03:30;;;;;;;14.35;4.38;;;;;;;;;;5051505;28;20119;-73
2022/10/09 00:05:57;;;;;;;19.05;4.32;;;;;;;;;;5050495;28;20037;-73
2022/10/09 00:08:23;;;;;;;16.40;4.47;;;;;;;;;;5051022;28;20132;-73
2022/10/09 00:10:49;;;;;;;17.63;4.43;;;;;;;;;;5048795;28;20531;-73
2022/10/09 00:13:15;;;;;;;15.50;4.82;;;;;;;;;;5014292;28;20048;-73
2022/10/09 00:15:42;;;;;;;13.85;4.10;;;;;;;;;;5049446;28;20125;-73
2022/10/09 00:18:09;;;;;;;13.38;4.45;;;;;;;;;;5051148;28;20037;-73
2022/10/09 00:20:36;;;;;;;16.20;4.45;;;;;;;;;;5050643;28;20065;-73
2022/10/09 00:23:03;;;;;;;13.85;4.40;;;;;;;;;;5051845;28;20510;-73
2022/10/09 00:25:29;;;;;;;12.30;4.60;;;;;;;;;;5049132;28;20037;-73
2022/10/09 00:27:56;;;;;;;14.30;4.75;;;;;;;;;;5050019;28;20037;-73
2022/10/09 00:30:22;;;;;;;11.85;4.90;;;;;;;;;;5048977;28;20072;-73
2022/10/09 00:32:48;;;;;;;15.13;4.75;;;;;;;;;;5045617;28;20088;-73
2022/10/09 00:35:14;;;;;;;17.58;5.20;;;;;;;;;;5028909;28;20049;-73
2022/10/09 00:37:40;;;;;;;18.65;5.07;;;;;;;;;;5058714;28;20045;-73
2022/10/09 00:40:07;;;;;;;15.23;4.85;;;;;;;;;;5045162;28;20095;-73
2022/10/09 00:42:33;;;;;;;16.27;5.63;;;;;;;;;;5047177;28;20049;-73
2022/10/09 00:45:00;;;;;;;20.75;5.13;;;;;;;;;;5047408;28;21602;-74
2022/10/09 00:47:31;;;;;;;12.40;4.90;;;;;;;;;;5045934;28;20055;-73
2022/10/09 00:50:19;;;;;;;13.23;5.10;;;;;;;;;;5053240;28;20076;-73
2022/10/09 00:52:46;;;;;;;13.68;4.90;;;;;;;;;;5046721;28;20044;-72
2022/10/09 00:55:13;;;;;;;15.82;6.05;;;;;;;;;;5046542;28;20041;-72
2022/10/09 00:57:40;;;;;;;13.65;5.32;;;;;;;;;;5060580;28;20526;-72
2022/10/09 01:00:07;;;;;;;15.95;6.03;;;;;;;;;;5046820;28;20486;-72
2022/10/09 01:02:33;;;;;;;12.45;5.15;;;;;;;;;;5046864;28;20041;-72
2022/10/09 01:04:59;;;;;;;14.85;5.47;;;;;;;;;;5046161;28;20079;-72
2022/10/09 01:07:25;;;;;;;19.98;5.80;;;;;;;;;;5047776;28;20069;-72
2022/10/09 01:09:56;;;;;;;17.42;5.13;;;;;;;;;;5052096;28;20079;-72
2022/10/09 01:12:37;;;;;;;15.38;6.10;;;;;;;;;;5054032;28;20451;-72
2022/10/09 01:15:03;;;;;;;13.75;5.40;;;;;;;;;;5053246;28;20049;-72
2022/10/09 01:17:35;;;;;;;17.48;5.82;;;;;;;;;;5054138;28;20052;-72
2022/10/09 01:20:11;;;;;;;16.40;5.70;;;;;;;;;;5059330;28;20094;-72
2022/10/09 01:22:43;;;;;;;19.10;6.32;;;;;;;;;;5054258;28;20569;-72
2022/10/09 01:25:11;;;;;;;14.25;5.68;;;;;;;;;;5034188;28;20041;-72
2022/10/09 01:27:37;;;;;;;14.63;5.32;;;;;;;;;;5065280;28;20045;-72
2022/10/09 01:30:05;;;;;;;13.57;5.05;;;;;;;;;;5068090;28;20045;-72
2022/10/09 01:32:33;;;;;;;15.40;4.95;;;;;;;;;;5051955;28;21079;-72
2022/10/09 01:35:00;;;;;;;13.05;5.22;;;;;;;;;;5051331;28;20045;-72
2022/10/09 01:37:27;;;;;;;17.10;5.53;;;;;;;;;;5051359;28;20491;-72
2022/10/09 01:39:53;;;;;;;13.43;4.25;;;;;;;;;;5054424;28;20037;-72
2022/10/09 01:42:21;;;;;;;13.60;5.50;;;;;;;;;;5054494;28;20175;-72
2022/10/09 01:44:47;;;;;;;13.10;4.63;;;;;;;;;;5051991;28;20419;-72
2022/10/09 01:47:14;;;;;;;16.50;5.22;;;;;;;;;;5054673;28;20076;-72
2022/10/09 01:49:43;;;;;;;15.13;5.22;;;;;;;;;;5053047;28;20041;-72
2022/10/09 01:52:24;;;;;;;14.75;5.72;;;;;;;;;;5052991;28;20045;-72
2022/10/09 01:54:53;;;;;;;13.73;5.60;;;;;;;;;;5052607;28;20407;-72
2022/10/09 01:57:26;;;;;;;15.52;5.57;;;;;;;;;;5053422;28;20092;-72
2022/10/09 01:59:53;;;;;;;15.13;5.65;;;;;;;;;;5053631;28;20076;-72
2022/10/09 02:02:19;;;;;;;15.02;5.13;;;;;;;;;;5052094;28;20052;-72
2022/10/09 02:04:46;;;;;;;13.48;5.22;;;;;;;;;;5034143;28;20049;-72
2022/10/09 02:07:12;;;;;;;10.52;5.05;;;;;;;;;;5054048;28;20499;-72
2022/10/09 02:09:39;;;;;;;14.75;5.63;;;;;;;;;;5034496;28;20049;-72
2022/10/09 02:12:07;;;;;;;17.05;5.95;;;;;;;;;;5047810;28;20586;-72
2022/10/09 02:14:34;;;;;;;15.88;6.10;;;;;;;;;;5052696;28;20048;-72
2022/10/09 02:17:03;;;;;;;11.90;5.90;;;;;;;;;;5033856;28;20041;-72
2022/10/09 02:19:48;;;;;;;12.65;5.32;;;;;;;;;;5049834;28;20049;-72
2022/10/09 02:22:20;;;;;;;16.42;5.00;;;;;;;;;;5045481;28;20572;-72
2022/10/09 02:24:46;;;;;;;15.32;5.85;;;;;;;;;;5051918;28;20053;-72
2022/10/09 02:27:13;;;;;;;17.10;5.70;;;;;;;;;;5051507;28;20115;-72
2022/10/09 02:29:40;;;;;;;15.88;5.78;;;;;;;;;;5051959;28;20041;-72
2022/10/09 02:32:07;;;;;;;15.00;5.45;;;;;;;;;;5052850;28;20053;-72
2022/10/09 02:34:33;;;;;;;12.55;5.60;;;;;;;;;;5051979;28;20056;-72
2022/10/09 02:36:59;;;;;;;10.57;5.13;;;;;;;;;;5048570;28;20046;-72
2022/10/09 02:39:25;;;;;;;12.68;5.50;;;;;;;;;;5048070;28;20115;-72
2022/10/09 02:41:51;;;;;;;13.38;5.90;;;;;;;;;;5053407;28;20532;-72
2022/10/09 02:44:17;;;;;;;13.27;5.65;;;;;;;;;;5052174;28;20049;-72
2022/10/09 02:46:43;;;;;;;13.55;6.25;;;;;;;;;;5054211;28;20414;-73
2022/10/09 02:49:09;;;;;;;14.07;5.25;;;;;;;;;;5049589;28;20040;-72
2022/10/09 02:51:35;;;;;;;8.45;4.90;;;;;;;;;;5052776;28;20045;-72
2022/10/09 02:54:01;;;;;;;11.15;5.60;;;;;;;;;;5043288;28;20507;-72
2022/10/09 02:56:27;;;;;;;13.45;5.05;;;;;;;;;;5052491;28;20779;-72
2022/10/09 02:58:53;;;;;;;9.73;4.70;;;;;;;;;;5033322;28;20056;-72
2022/10/09 03:01:20;;;;;;;10.32;4.45;;;;;;;;;;5047702;28;20095;-72
2022/10/09 03:03:46;;;;;;;8.93;4.70;;;;;;;;;;5051323;28;20506;-72
2022/10/09 03:06:14;;;;;;;10.02;5.13;;;;;;;;;;5050553;28;20041;-72
2022/10/09 03:08:41;;;;;;;15.23;5.07;;;;;;;;;;5049250;28;20479;-72
2022/10/09 03:11:07;;;;;;;14.88;5.10;;;;;;;;;;5050606;28;20044;-72
2022/10/09 03:13:33;;;;;;;14.40;5.57;;;;;;;;;;5051435;28;20049;-72
2022/10/09 03:16:04;;;;;;;12.95;5.88;;;;;;;;;;5052810;28;20037;-72
2022/10/09 03:18:30;;;;;;;13.80;5.60;;;;;;;;;;5052126;28;20037;-72
2022/10/09 03:20:56;;;;;;;13.30;5.97;;;;;;;;;;5051355;28;20485;-73
2022/10/09 03:23:22;;;;;;;13.25;6.25;;;;;;;;;;5052315;28;20445;-73
2022/10/09 03:26:02;;;;;;;13.45;5.78;;;;;;;;;;5052375;28;20127;-73
2022/10/09 03:28:29;;;;;;;12.93;5.60;;;;;;;;;;5030701;28;20041;-73
2022/10/09 03:30:55;;;;;;;14.80;6.00;;;;;;;;;;5050844;28;20041;-73
2022/10/09 03:33:21;;;;;;;16.95;5.88;;;;;;;;;;5050605;28;20056;-73
2022/10/09 03:35:48;;;;;;;12.60;5.28;;;;;;;;;;5051778;28;20509;-73
2022/10/09 03:38:15;;;;;;;9.70;5.35;;;;;;;;;;5049774;28;20118;-73
2022/10/09 03:40:41;;;;;;;9.52;4.95;;;;;;;;;;5032439;28;20052;-73
2022/10/09 03:43:07;;;;;;;13.50;5.22;;;;;;;;;;5051091;28;20041;-73
2022/10/09 03:45:33;;;;;;;9.52;4.88;;;;;;;;;;5052191;28;20203;-73
2022/10/09 03:47:59;;;;;;;9.82;5.15;;;;;;;;;;5051200;28;20491;-73
2022/10/09 03:50:25;;;;;;;12.02;5.47;;;;;;;;;;5052187;28;20036;-73
2022/10/09 03:52:51;;;;;;;11.82;5.60;;;;;;;;;;5050809;28;20491;-73
2022/10/09 03:55:17;;;;;;;11.35;6.18;;;;;;;;;;5043187;28;20120;-72
2022/10/09 03:57:43;;;;;;;12.73;5.53;;;;;;;;;;5049601;28;20148;-73
2022/10/09 04:00:09;;;;;;;13.75;6.10;;;;;;;;;;5048806;28;20048;-73
2022/10/09 04:02:35;;;;;;;13.55;5.90;;;;;;;;;;5024327;28;20049;-73
2022/10/09 04:05:01;;;;;;;13.57;6.25;;;;;;;;;;5049032;28;20453;-73
2022/10/09 04:07:28;;;;;;;13.40;6.28;;;;;;;;;;5050806;28;20450;-73
2022/10/09 04:09:53;;;;;;;12.75;5.88;;;;;;;;;;5049045;28;20392;-73
2022/10/09 04:12:19;;;;;;;12.18;5.80;;;;;;;;;;5050345;28;20044;-73
2022/10/09 04:14:45;;;;;;;14.95;5.50;;;;;;;;;;5051363;28;20049;-73
2022/10/09 04:17:11;;;;;;;11.25;6.22;;;;;;;;;;5050864;28;20553;-73
2022/10/09 04:19:37;;;;;;;10.50;5.72;;;;;;;;;;5033833;28;20044;-73
2022/10/09 04:22:03;;;;;;;10.52;5.88;;;;;;;;;;5050539;28;20495;-73
2022/10/09 04:24:29;;;;;;;10.45;5.93;;;;;;;;;;5051603;28;20045;-72
2022/10/09 04:26:55;;;;;;;10.85;5.80;;;;;;;;;;5047196;28;20442;-72
2022/10/09 04:29:22;;;;;;;10.93;5.72;;;;;;;;;;5049984;28;20499;-72
2022/10/09 04:31:48;;;;;;;11.73;6.30;;;;;;;;;;5049662;28;20095;-72
2022/10/09 04:34:14;;;;;;;11.20;6.38;;;;;;;;;;5029997;28;20060;-72
2022/10/09 04:36:40;;;;;;;11.00;5.72;;;;;;;;;;5031584;28;20060;-72
2022/10/09 04:39:06;;;;;;;14.13;6.50;;;;;;;;;;5050350;28;20056;-72
2022/10/09 04:41:32;;;;;;;10.77;5.97;;;;;;;;;;5048736;28;20045;-73
2022/10/09 04:43:58;;;;;;;14.10;6.35;;;;;;;;;;5050572;28;20095;-73
2022/10/09 04:46:24;;;;;;;12.98;6.68;;;;;;;;;;5049144;28;20110;-72
2022/10/09 04:48:50;;;;;;;16.30;6.55;;;;;;;;;;5050278;28;20043;-72
2022/10/09 04:51:17;;;;;;;14.38;6.60;;;;;;;;;;5049584;28;20104;-72
2022/10/09 04:53:44;;;;;;;12.43;6.43;;;;;;;;;;5051463;28;20514;-72
2022/10/09 04:56:15;;;;;;;14.52;6.30;;;;;;;;;;5051656;28;20494;-72
2022/10/09 04:58:42;;;;;;;13.98;6.70;;;;;;;;;;5049547;28;20523;-72
2022/10/09 05:01:19;;;;;;;10.55;6.30;;;;;;;;;;5031392;28;20083;-72
2022/10/09 05:03:45;;;;;;;20.27;6.93;;;;;;;;;;5051283;28;20053;-72
2022/10/09 05:06:12;;;;;;;11.20;6.55;;;;;;;;;;5049263;28;20044;-73
2022/10/09 05:08:38;;;;;;;11.95;7.15;;;;;;;;;;5049348;28;20045;-72
2022/10/09 05:11:11;;;;;;;11.13;7.22;;;;;;;;;;5030860;28;20510;-72
2022/10/09 05:13:38;;;;;;;15.00;7.70;;;;;;;;;;5048881;28;20612;-73
2022/10/09 05:16:06;;;;;;;12.35;7.13;;;;;;;;;;5039657;28;20041;-73
2022/10/09 05:18:32;;;;;;;10.88;6.88;;;;;;;;;;5049651;28;20045;-73
2022/10/09 05:20:58;;;;;;;12.80;6.80;;;;;;;;;;5050332;28;20076;-73
2022/10/09 05:23:24;;;;;;;20.00;6.80;;;;;;;;;;5034592;28;20045;-72
2022/10/09 05:25:58;;;;;;;27.77;6.85;;;;;;;;;;5050422;28;20049;-73
2022/10/09 05:28:24;;;;;;;9.88;6.55;;;;;;;;;;5050121;28;20095;-73
2022/10/09 05:30:50;;;;;;;11.55;7.32;;;;;;;;;;5052934;28;20107;-74
2022/10/09 05:33:16;;;;;;;15.00;7.20;;;;;;;;;;5053212;28;20056;-74
2022/10/09 05:35:52;;;;;;;14.07;7.85;;;;;;;;;;5054217;28;20090;-74
2022/10/09 05:38:19;;;;;;;12.77;7.30;;;;;;;;;;5051822;28;20041;-74
2022/10/09 05:40:55;;;;;;;15.68;7.47;;;;;;;;;;5051889;28;20490;-74
2022/10/09 05:43:25;;;;;;;13.35;8.20;;;;;;;;;;5066696;28;20048;-74
2022/10/09 05:45:51;;;;;;;13.02;8.10;;;;;;;;;;5052068;28;20065;-73
2022/10/09 05:48:17;;;;;;;15.32;8.45;;;;;;;;;;5064531;28;20048;-74
2022/10/09 05:50:43;;;;;;;12.93;8.13;;;;;;;;;;5046095;28;20045;-73
2022/10/09 05:53:09;;;;;;;14.45;8.18;;;;;;;;;;5051153;28;20049;-73
2022/10/09 05:55:35;;;;;;;13.73;8.40;;;;;;;;;;5050569;28;20115;-73
2022/10/09 05:58:02;;;;;;;15.35;8.82;;;;;;;;;;5053973;28;20045;-74
2022/10/09 06:00:28;;;;;;;16.80;9.02;;;;;;;;;;5050579;28;20410;-74
2022/10/09 06:02:54;;;;;;;16.05;9.35;;;;;;;;;;5051518;28;20047;-71
2022/10/09 06:05:20;;;;;;;12.90;8.55;;;;;;;;;;5049152;28;20053;-71
2022/10/09 06:07:46;;;;;;;13.65;9.15;;;;;;;;;;5048759;28;20051;-72
2022/10/09 06:10:12;;;;;;;17.25;9.40;;;;;;;;;;5053182;28;20106;-73
2022/10/09 06:12:39;;;;;;;14.77;9.20;;;;;;;;;;5052969;28;20041;-72
2022/10/09 06:15:05;;;;;;;15.75;8.98;;;;;;;;;;5052594;28;20142;-72
2022/10/09 06:17:32;;;;;;;15.00;9.48;;;;;;;;;;5048096;28;20041;-72
2022/10/09 06:19:58;;;;;;;14.65;9.18;;;;;;;;;;5042137;28;20522;-72
2022/10/09 06:22:24;;;;;;;15.23;10.18;;;;;;;;;;5047945;28;20403;-73
2022/10/09 06:24:50;;;;;;;14.48;9.25;;;;;;;;;;5038879;28;20414;-72
2022/10/09 06:27:16;;;;;;;12.70;9.43;;;;;;;;;;5051182;28;20358;-72
2022/10/09 06:29:42;;;;;;;13.23;9.55;;;;;;;;;;5053023;28;20057;-72
2022/10/09 06:32:09;;;;;;;14.40;8.23;;;;;;;;;;5048060;28;20128;-72
2022/10/09 06:34:35;;;;;;;14.07;8.93;;;;;;;;;;5058453;28;20063;-72
2022/10/09 06:37:01;;;;;;;12.77;8.93;;;;;;;;;;5051728;28;20057;-73
2022/10/09 06:39:27;;;;;;;14.80;8.75;;;;;;;;;;5050170;28;20079;-72
2022/10/09 06:41:53;;;;;;;13.70;8.90;;;;;;;;;;5047311;28;20044;-72
2022/10/09 06:44:19;;;;;;;13.68;9.13;;;;;;;;;;5043253;28;20049;-72
2022/10/09 06:46:48;;;;;;;10.18;7.60;;;;;;;;;;5052938;28;20033;-73
2022/10/09 06:49:14;;;;;;;13.90;9.07;;;;;;;;;;5052088;28;20388;-72
2022/10/09 06:51:40;;;;;;;13.65;8.70;;;;;;;;;;5058320;28;20051;-72
2022/10/09 06:54:11;;;;;;;17.38;9.27;;;;;;;;;;5041413;28;20087;-72
2022/10/09 06:56:37;;;;;;;13.83;8.90;;;;;;;;;;5043399;28;20072;-72
2022/10/09 06:59:04;;;;;;;13.80;8.43;;;;;;;;;;5011337;28;20103;-73
2022/10/09 07:01:30;;;;;;;13.32;8.85;;;;;;;;;;5032163;28;20033;-72
2022/10/09 07:04:00;;;;;;;14.63;9.50;;;;;;;;;;5051468;28;20521;-73
2022/10/09 07:06:27;;;;;;;13.88;9.68;;;;;;;;;;5052531;28;20114;-72
2022/10/09 07:08:54;;;;;;;15.68;9.35;;;;;;;;;;5055719;28;20053;-72
2022/10/09 07:11:22;;;;;;;12.55;8.07;;;;;;;;;;5045862;28;20096;-72
2022/10/09 07:13:52;;;;;;;14.13;8.35;;;;;;;;;;5046737;28;20044;-73
2022/10/09 07:16:20;;;;;;;12.93;7.63;;;;;;;;;;5026125;28;20045;-73
2022/10/09 07:18:46;;;;;;;11.07;6.82;;;;;;;;;;5042602;28;20041;-73
2022/10/09 07:21:12;;;;;;;12.88;7.28;;;;;;;;;;5046001;28;20037;-72
2022/10/09 07:23:38;;;;;;;12.82;7.65;;;;;;;;;;5044957;28;20041;-72
2022/10/09 07:26:11;;;;;;;10.93;6.97;;;;;;;;;;5048072;28;20128;-72
2022/10/09 07:28:37;;;;;;;11.55;6.63;;;;;;;;;;5051865;28;20479;-72
2022/10/09 07:31:04;;;;;;;12.75;6.90;;;;;;;;;;5052927;28;20486;-71
2022/10/09 07:33:30;;;;;;;11.25;7.05;;;;;;;;;;5046757;28;20057;-71
2022/10/09 07:35:57;;;;;;;11.88;7.30;;;;;;;;;;5046692;28;20502;-72
2022/10/09 07:38:23;;;;;;;11.38;6.90;;;;;;;;;;5051266;28;20041;-72
2022/10/09 07:40:50;;;;;;;13.23;7.10;;;;;;;;;;5031972;28;20076;-72
2022/10/09 07:43:16;;;;;;;16.27;7.82;;;;;;;;;;5046250;28;20510;-72
2022/10/09 07:45:42;;;;;;;14.10;7.70;;;;;;;;;;5051809;28;20052;-71
2022/10/09 07:48:08;;;;;;;13.13;8.32;;;;;;;;;;5051347;28;20087;-72
2022/10/09 07:50:34;;;;;;;13.52;7.68;;;;;;;;;;5052439;28;20593;-72
2022/10/09 07:53:00;;;;;;;13.75;8.15;;;;;;;;;;5048657;28;20037;-72
2022/10/09 07:55:26;;;;;;;12.48;8.13;;;;;;;;;;5051189;28;20045;-73
2022/10/09 07:57:52;;;;;;;14.23;8.32;;;;;;;;;;5048738;28;20041;-72
2022/10/09 08:00:18;;;;;;;12.68;8.75;;;;;;;;;;5050817;28;20087;-71
2022/10/09 08:02:44;;;;;;;12.13;8.77;;;;;;;;;;5048577;28;20090;-72
2022/10/09 08:05:10;;;;;;;15.02;9.02;;;;;;;;;;5049680;28;20036;-72
2022/10/09 08:07:37;;;;;;;12.75;9.30;;;;;;;;;;5033279;28;20518;-72
2022/10/09 08:10:04;;;;;;;14.43;9.00;;;;;;;;;;5050911;28;20041;-72
2022/10/09 08:12:30;;;;;;;19.10;9.43;;;;;;;;;;5048659;28;20041;-72
2022/10/09 08:14:56;;;;;;;14.07;9.60;;;;;;;;;;5045549;28;20048;-72
2022/10/09 08:17:22;;;;;;;13.05;8.95;;;;;;;;;;5043849;28;20047;-75
2022/10/09 08:19:48;;;;;;;15.85;8.73;;;;;;;;;;5044246;28;20435;-71
2022/10/09 08:22:14;;;;;;;16.20;9.00;;;;;;;;;;5045006;28;20044;-72
2022/10/09 08:24:40;;;;;;;14.73;9.18;;;;;;;;;;5038905;28;20046;-75
2022/10/09 08:27:06;;;;;;;16.35;9.40;;;;;;;;;;5043973;28;20045;-71
2022/10/09 08:29:32;;;;;;;14.40;10.10;;;;;;;;;;5040076;28;20041;-75
2022/10/09 08:31:59;;;;;;;13.57;10.18;;;;;;;;;;5026908;28;20052;-74
2022/10/09 08:34:25;;;;;;;16.85;10.10;;;;;;;;;;5046013;28;20103;-75
2022/10/09 08:36:51;;;;;;;17.65;10.93;;;;;;;;;;5044226;28;20483;-70
2022/10/09 08:39:17;;;;;;;15.02;10.82;;;;;;;;;;5045948;28;20053;-74
2022/10/09 08:41:46;;;;;;;15.32;10.55;;;;;;;;;;5044387;28;20037;-72
2022/10/09 08:44:21;;;;;;;16.38;10.98;;;;;;;;;;5044039;28;20510;-72
2022/10/09 08:46:55;;;;;;;15.65;10.93;;;;;;;;;;5026790;28;20056;-72
2022/10/09 08:49:28;;;;;;;18.95;11.63;;;;;;;;;;5042904;28;20099;-72
2022/10/09 08:51:56;;;;;;;16.92;11.48;;;;;;;;;;5044429;28;20099;-72
2022/10/09 08:54:40;;;;;;;20.35;11.93;;;;;;;;;;5041476;28;20041;-73
2022/10/09 08:57:10;;;;;;;17.52;10.27;;;;;;;;;;5044229;28;20041;-72
2022/10/09 08:59:36;;;;;;;17.08;10.50;;;;;;;;;;5041990;28;20049;-72
2022/10/09 09:02:24;;;;;;;21.00;10.73;;;;;;;;;;5046494;28;20049;-72
2022/10/09 09:04:59;;;;;;;18.27;9.73;;;;;;;;;;5042491;28;20128;-72
2022/10/09 09:07:38;;;;;;;16.73;9.23;;;;;;;;;;5049992;28;20029;-72
2022/10/09 09:10:04;;;;;;;16.70;9.57;;;;;;;;;;5053691;28;20041;-72
2022/10/09 09:12:48;;;;;;;16.80;8.90;;;;;;;;;;5051511;28;20107;-72
2022/10/09 09:15:30;;;;;;;18.02;8.90;;;;;;;;;;5053402;28;20403;-72
2022/10/09 09:17:56;;;;;;;16.40;7.43;;;;;;;;;;5041375;28;20061;-72
2022/10/09 09:20:31;;;;;;;19.65;8.18;;;;;;;;;;5034768;28;20044;-72
2022/10/09 09:22:58;;;;;;;17.13;7.22;;;;;;;;;;5050277;28;20052;-72
2022/10/09 09:25:27;;;;;;;16.55;7.82;;;;;;;;;;5046767;28;20414;-72
2022/10/09 09:27:54;;;;;;;17.38;7.45;;;;;;;;;;5027809;28;20037;-72
2022/10/09 09:30:28;;;;;;;15.27;7.30;;;;;;;;;;5032751;28;20084;-72
2022/10/09 09:33:13;;;;;;;15.45;7.22;;;;;;;;;;5046346;28;20061;-72
2022/10/09 09:35:51;;;;;;;15.18;7.50;;;;;;;;;;5046654;28;20499;-72
2022/10/09 09:38:17;;;;;;;16.17;6.45;;;;;;;;;;5051746;28;20437;-72
2022/10/09 09:40:44;;;;;;;13.73;6.70;;;;;;;;;;5052664;28;20041;-72
2022/10/09 09:43:15;;;;;;;15.00;6.07;;;;;;;;;;5035945;28;20044;-72
2022/10/09 09:45:42;;;;;;;;;;;;;;;;;;5052297;28;20052;-72
2022/10/09 09:48:16;;;;;;;14.23;6.28;;;;;;;;;;5044290;28;19921;-72
2022/10/09 09:50:43;;;;;;;13.57;5.00;;;;;;;;;;5036357;28;20106;-72
2022/10/09 09:53:23;;;;;;;14.75;5.60;;;;;;;;;;5054488;28;20689;-72
2022/10/09 09:55:53;;;;;;;12.02;5.05;;;;;;;;;;5053393;28;20419;-72
2022/10/09 09:58:20;;;;;;;12.02;5.20;;;;;;;;;;5053463;28;20083;-72
2022/10/09 10:00:55;;;;;;;15.40;4.65;;;;;;;;;;5054184;28;20044;-72
2022/10/09 10:03:21;;;;;;;10.65;4.20;;;;;;;;;;5054284;28;20071;-72
2022/10/09 10:05:48;;;;;;;14.00;4.97;;;;;;;;;;5054158;28;20072;-72
2022/10/09 10:08:14;;;;;;;14.75;4.90;;;;;;;;;;5053493;28;20048;-72
2022/10/09 10:10:45;;;;;;;13.85;4.15;;;;;;;;;;5053937;28;20098;-72
2022/10/09 10:13:14;;;;;;;11.98;4.47;;;;;;;;;;5051355;28;20049;-72
2022/10/09 10:15:47;;;;;;;14.30;4.40;;;;;;;;;;5042735;28;20091;-72
2022/10/09 10:18:14;;;;;;;12.68;4.22;;;;;;;;;;5052620;28;20415;-72
2022/10/09 10:20:43;;;;;;;11.73;3.55;;;;;;;;;;5052175;28;20053;-72
2022/10/09 10:23:23;;;;;;;11.15;3.80;;;;;;;;;;5051356;28;20469;-72
2022/10/09 10:25:50;;;;;;;13.07;3.63;;;;;;;;;;5053198;28;20490;-72
2022/10/09 10:28:19;;;;;;;11.90;3.47;;;;;;;;;;5053042;28;20045;-72
2022/10/09 10:30:45;;;;;;;13.07;4.07;;;;;;;;;;5053685;28;20118;-72
2022/10/09 10:33:18;;;;;;;11.75;3.70;;;;;;;;;;5052409;28;20057;-72
2022/10/09 10:35:45;;;;;;;11.30;3.25;;;;;;;;;;5048756;28;20042;-72
2022/10/09 10:38:14;;;;;;;8.93;3.13;;;;;;;;;;5037273;28;20149;-72
2022/10/09 10:40:49;;;;;;;12.10;3.20;;;;;;;;;;5045009;28;20585;-72
2022/10/09 10:43:35;;;;;;;11.63;3.40;;;;;;;;;;5052598;28;20045;-72
2022/10/09 10:46:04;;;;;;;11.80;3.20;;;;;;;;;;5030937;28;20060;-72
2022/10/09 10:48:33;;;;;;;12.57;3.28;;;;;;;;;;5035240;28;20049;-72
2022/10/09 10:51:11;;;;;;;10.77;2.90;;;;;;;;;;5053156;28;20106;-72
2022/10/09 10:53:52;;;;;;;9.23;3.03;;;;;;;;;;5053148;28;20432;-72
2022/10/09 10:56:18;;;;;;;12.77;3.67;;;;;;;;;;5052670;28;20049;-72
2022/10/09 10:58:53;;;;;;;11.75;3.30;;;;;;;;;;5039800;28;20072;-72
2022/10/09 11:01:37;;;;;;;11.63;3.28;;;;;;;;;;5033275;28;20053;-72
2022/10/09 11:04:17;;;;;;;10.93;2.83;;;;;;;;;;5049018;28;20040;-72
2022/10/09 11:06:50;;;;;;;10.65;2.42;;;;;;;;;;5039866;28;20060;-72
2022/10/09 11:09:43;;;;;;;9.80;2.75;;;;;;;;;;5049661;28;20102;-72
2022/10/09 11:12:12;;;;;;;12.45;3.08;;;;;;;;;;5004329;28;20052;-72
2022/10/09 11:14:58;;;;;;;13.93;2.58;;;;;;;;;;5067659;28;20102;-72
2022/10/09 11:17:30;;;;;;;8.95;2.58;;;;;;;;;;5042442;28;20098;-72
2022/10/09 11:19:59;;;;;;;9.95;2.85;;;;;;;;;;5052291;28;20123;-72
2022/10/09 11:22:25;;;;;;;11.15;2.97;;;;;;;;;;5035957;28;20057;-72
2022/10/09 11:25:03;;;;;;;10.95;2.65;;;;;;;;;;5048936;28;20037;-72
2022/10/09 11:27:38;;;;;;;10.45;2.35;;;;;;;;;;5036831;28;20644;-72
2022/10/09 11:30:08;;;;;;;10.13;2.45;;;;;;;;;;5039555;28;20033;-72
2022/10/09 11:32:37;;;;;;;11.38;2.67;;;;;;;;;;5046071;28;20049;-72
2022/10/09 11:35:22;;;;;;;8.57;2.30;;;;;;;;;;5050895;28;20131;-72
2022/10/09 11:37:56;;;;;;;12.50;2.53;;;;;;;;;;5047462;28;20049;-72
2022/10/09 11:40:37;;;;;;;8.93;2.17;;;;;;;;;;5052567;28;20075;-72
2022/10/09 11:43:08;;;;;;;8.43;2.22;;;;;;;;;;5067436;28;20090;-72
2022/10/09 11:45:48;;;;;;;9.02;2.28;;;;;;;;;;5052254;28;20495;-72
2022/10/09 11:48:18;;;;;;;9.13;2.38;;;;;;;;;;5050395;28;20371;-72
2022/10/09 11:50:58;;;;;;;10.15;2.38;;;;;;;;;;5052325;28;20049;-73
2022/10/09 11:53:25;;;;;;;14.30;2.20;;;;;;;;;;5051781;28;20140;-73
2022/10/09 11:56:01;;;;;;;9.38;2.05;;;;;;;;;;5051284;28;20033;-72
2022/10/09 11:58:27;;;;;;;8.40;1.88;;;;;;;;;;5051440;28;20450;-73
2022/10/09 12:00:54;;;;;;;10.18;1.85;;;;;;;;;;5040768;28;20063;-72
2022/10/09 12:03:32;;;;;;;8.75;2.08;;;;;;;;;;5052910;28;20037;-73
2022/10/09 12:06:06;;;;;;;10.52;2.40;;;;;;;;;;5051007;28;20128;-72
2022/10/09 12:08:32;;;;;;;8.80;1.80;;;;;;;;;;5016354;28;20209;-72
2022/10/09 12:11:06;;;;;;;8.25;1.80;;;;;;;;;;5038180;28;20047;-72
2022/10/09 12:13:38;;;;;;;8.65;2.28;;;;;;;;;;5048949;28;20080;-72
2022/10/09 12:16:05;;;;;;;10.18;2.03;;;;;;;;;;5049593;28;20048;-73
2022/10/09 12:18:35;;;;;;;9.25;2.17;;;;;;;;;;5048974;28;20070;-72
2022/10/09 12:21:04;;;;;;;7.97;1.77;;;;;;;;;;5039252;28;20478;-72
2022/10/09 12:23:32;;;;;;;10.38;2.10;;;;;;;;;;5059189;28;20483;-72
2022/10/09 12:25:59;;;;;;;8.40;1.88;;;;;;;;;;5051598;28;20045;-72
2022/10/09 12:28:38;;;;;;;6.80;1.50;;;;;;;;;;5051179;28;20041;-72
2022/10/09 12:31:06;;;;;;;9.25;2.10;;;;;;;;;;5051212;28;20110;-73
2022/10/09 12:33:37;;;;;;;8.55;2.20;;;;;;;;;;5033954;28;20534;-72
2022/10/09 12:36:12;;;;;;;10.60;2.10;;;;;;;;;;5053337;28;20159;-72
2022/10/09 12:38:38;;;;;;;7.65;1.73;;;;;;;;;;5037521;28;20060;-72
2022/10/09 12:41:06;;;;;;;7.80;1.92;;;;;;;;;;5032953;28;20531;-72
2022/10/09 12:43:33;;;;;;;11.02;2.50;;;;;;;;;;5055947;28;20072;-73
2022/10/09 12:45:59;;;;;;;10.68;2.25;;;;;;;;;;5055826;28;20041;-72
2022/10/09 12:48:26;;;;;;;8.80;2.22;;;;;;;;;;5055823;28;20498;-72
2022/10/09 12:50:53;;;;;;;11.07;1.83;;;;;;;;;;5053829;28;20076;-73
2022/10/09 12:53:20;;;;;;;7.38;1.90;;;;;;;;;;5051230;28;20032;-73
2022/10/09 12:55:48;;;;;;;7.47;1.95;;;;;;;;;;5041442;28;20041;-73
2022/10/09 12:58:16;;;;;;;9.05;2.00;;;;;;;;;;5037818;28;20053;-73
2022/10/09 13:00:42;;;;;;;9.00;2.08;;;;;;;;;;5051140;28;20041;-73
2022/10/09 13:03:27;;;;;;;9.27;2.63;;;;;;;;;;5074474;28;20414;-72
2022/10/09 13:05:56;;;;;;;10.48;2.47;;;;;;;;;;5075444;28;20056;-72
2022/10/09 13:08:24;;;;;;;7.65;2.08;;;;;;;;;;5073769;28;20048;-72
2022/10/09 13:10:50;;;;;;;7.32;1.95;;;;;;;;;;5048954;28;20044;-72
2022/10/09 13:13:19;;;;;;;9.50;2.85;;;;;;;;;;5036891;28;20081;-72
2022/10/09 13:15:46;;;;;;;8.27;2.20;;;;;;;;;;5035191;28;20435;-72
2022/10/09 13:18:12;;;;;;;10.02;2.30;;;;;;;;;;5035293;28;20041;-73
2022/10/09 13:20:38;;;;;;;10.25;2.28;;;;;;;;;;5042826;28;20041;-72
2022/10/09 13:23:05;;;;;;;9.88;2.00;;;;;;;;;;5000855;28;20059;-73
2022/10/09 13:25:33;;;;;;;8.02;1.80;;;;;;;;;;5034958;28;20045;-72
2022/10/09 13:27:59;;;;;;;9.65;2.72;;;;;;;;;;5064211;28;20040;-72
2022/10/09 13:30:27;;;;;;;8.77;2.17;;;;;;;;;;5050355;28;20409;-73
2022/10/09 13:32:53;;;;;;;7.75;2.08;;;;;;;;;;5054840;28;20053;-72
2022/10/09 13:35:19;;;;;;;9.32;2.00;;;;;;;;;;5045673;28;20077;-72
2022/10/09 13:37:45;;;;;;;7.97;2.20;;;;;;;;;;5034652;28;20037;-72
2022/10/09 13:40:13;;;;;;;11.07;2.45;;;;;;;;;;5026926;28;20072;-72
2022/10/09 13:42:39;;;;;;;9.65;2.90;;;;;;;;;;5053620;28;20057;-72
2022/10/09 13:45:06;;;;;;;22.58;9.63;;;;;;;;;;5042543;28;20053;-72
2022/10/09 13:47:32;;;;;;;9.60;2.65;;;;;;;;;;5041341;28;20041;-72
2022/10/09 13:49:58;;;;;;;8.55;2.10;;;;;;;;;;5034467;28;20420;-72
2022/10/09 13:52:24;;;;;;;7.57;1.90;;;;;;;;;;5035219;28;20352;-72
2022/10/09 13:54:50;;;;;;;7.22;2.00;;;;;;;;;;5054285;28;20506;-72
2022/10/09 13:57:16;;;;;;;9.40;2.20;;;;;;;;;;5053790;28;20402;-72
2022/10/09 13:59:42;;;;;;;7.32;2.10;;;;;;;;;;5054380;28;20051;-72
2022/10/09 14:02:09;;;;;;;7.97;2.15;;;;;;;;;;5053766;28;20045;-72
2022/10/09 14:04:35;;;;;;;10.85;2.40;;;;;;;;;;5051025;28;20491;-72
2022/10/09 14:07:02;;;;;;;11.10;2.35;;;;;;;;;;5062718;28;20505;-73
2022/10/09 14:09:28;;;;;;;9.77;2.50;;;;;;;;;;5053718;28;20394;-72
2022/10/09 14:11:54;;;;;;;9.35;2.60;;;;;;;;;;5035072;28;20048;-72
2022/10/09 14:14:21;;;;;;;9.40;2.65;;;;;;;;;;5053609;28;20056;-72
2022/10/09 14:16:47;;;;;;;10.43;2.47;;;;;;;;;;5051302;28;20088;-72
2022/10/09 14:19:13;;;;;;;11.75;2.90;;;;;;;;;;5051519;28;20045;-72
2022/10/09 14:21:39;;;;;;;10.75;2.35;;;;;;;;;;5048443;28;20160;-73
2022/10/09 14:24:05;;;;;;;9.05;2.33;;;;;;;;;;5053927;28;20041;-72
2022/10/09 14:26:32;;;;;;;10.57;2.47;;;;;;;;;;5054117;28;20167;-73
2022/10/09 14:28:59;;;;;;;9.43;2.58;;;;;;;;;;5053153;28;20053;-73
2022/10/09 14:31:25;;;;;;;10.65;2.38;;;;;;;;;;5035775;28;20064;-72
2022/10/09 14:33:54;;;;;;;10.32;2.80;;;;;;;;;;5048174;28;20054;-72
2022/10/09 14:36:20;;;;;;;9.05;2.60;;;;;;;;;;5040262;28;20041;-72
2022/10/09 14:38:47;;;;;;;9.27;2.42;;;;;;;;;;5053753;28;20044;-72